createdAt,value
2018-09-23T00:00:08.138Z,90.48
2018-09-23T00:02:39.642Z,91.10
2018-09-23T00:05:10.475Z,91.03
2018-09-23T00:07:42.479Z,91.26
2018-09-23T00:10:12.489Z,92.15
2018-09-23T00:12:44.633Z,91.68
2018-09-23T00:15:14.556Z,91.54
2018-09-23T00:17:53.564Z,90.98
2018-09-23T00:20:34.578Z,91.10
2018-09-23T00:23:07.343Z,91.16
2018-09-23T00:25:45.050Z,90.51
2018-09-23T00:28:18.433Z,91.20
2018-09-23T00:30:55.330Z,91.83
2018-09-23T00:33:26.527Z,91.98
2018-09-23T00:38:37.325Z,91.64
2018-09-23T00:41:07.357Z,91.41
2018-09-23T00:43:39.398Z,92.37
2018-09-23T00:46:10.978Z,91.69
2018-09-23T00:48:42.048Z,91.36
2018-09-23T00:51:13.264Z,91.65
2018-09-23T00:53:43.248Z,91.22
2018-09-23T00:56:13.474Z,91.17
2018-09-23T00:58:44.158Z,91.37
2018-09-23T01:01:15.370Z,91.57
2018-09-23T01:03:51.672Z,91.72
2018-09-23T01:06:23.489Z,92.03
2018-09-23T01:08:55.422Z,92.30
2018-09-23T01:11:27.550Z,91.47
2018-09-23T01:13:58.767Z,91.25
2018-09-23T01:16:28.884Z,92.23
2018-09-23T01:18:59.310Z,91.80
2018-09-23T01:21:29.894Z,92.33
2018-09-23T01:23:59.862Z,92.43
2018-09-23T01:26:30.049Z,91.92
2018-09-23T01:29:01.818Z,92.28
2018-09-23T01:31:32.193Z,92.23
2018-09-23T01:34:02.463Z,92.07
2018-09-23T01:36:32.662Z,91.44
2018-09-23T01:39:02.992Z,91.78
2018-09-23T01:41:34.082Z,92.37
2018-09-23T01:44:04.723Z,92.81
2018-09-23T01:46:46.156Z,91.81
2018-09-23T01:49:16.581Z,91.79
2018-09-23T01:51:46.745Z,91.37
2018-09-23T01:54:16.967Z,91.79
2018-09-23T01:56:47.046Z,91.88
2018-09-23T01:59:17.610Z,91.15
2018-09-23T02:01:47.942Z,92.83
2018-09-23T02:04:18.222Z,92.90
2018-09-23T02:06:48.712Z,93.02
2018-09-23T02:09:18.463Z,93.32
2018-09-23T02:11:48.583Z,93.63
2018-09-23T02:14:18.702Z,93.00
2018-09-23T02:16:50.917Z,94.05
2018-09-23T02:19:22.622Z,94.45
2018-09-23T02:21:53.094Z,94.12
2018-09-23T02:24:23.311Z,93.79
2018-09-23T02:26:53.747Z,94.05
2018-09-23T02:29:25.565Z,93.92
2018-09-23T02:31:58.298Z,94.83
2018-09-23T02:34:29.198Z,94.41
2018-09-23T02:37:02.161Z,93.41
2018-09-23T02:39:32.129Z,94.73
2018-09-23T02:42:02.129Z,94.82
2018-09-23T02:44:32.408Z,94.47
2018-09-23T02:47:02.680Z,95.15
2018-09-23T02:49:32.956Z,94.95
2018-09-23T02:52:04.200Z,93.93
2018-09-23T02:54:36.191Z,94.22
2018-09-23T02:57:06.119Z,94.22
2018-09-23T02:59:39.725Z,93.34
2018-09-23T03:02:09.390Z,92.41
2018-09-23T03:04:40.429Z,92.86
2018-09-23T03:07:11.770Z,93.12
2018-09-23T03:09:44.937Z,93.74
2018-09-23T03:12:17.717Z,94.60
2018-09-23T03:14:49.917Z,94.20
2018-09-23T03:17:22.770Z,93.62
2018-09-23T03:19:53.151Z,93.70
2018-09-23T03:22:23.133Z,94.52
2018-09-23T03:24:55.817Z,94.35
2018-09-23T03:27:29.008Z,94.98
2018-09-23T03:30:00.514Z,94.55
2018-09-23T03:32:30.514Z,94.17
2018-09-23T03:35:02.291Z,94.34
2018-09-23T03:37:32.611Z,94.94
2018-09-23T03:40:03.390Z,94.26
2018-09-23T03:42:34.690Z,94.52
2018-09-23T03:45:05.825Z,94.21
2018-09-23T03:47:35.908Z,93.93
2018-09-23T03:50:06.223Z,94.56
2018-09-23T03:52:36.252Z,94.51
2018-09-23T03:55:09.219Z,94.91
2018-09-23T03:57:39.704Z,95.19
2018-09-23T04:00:09.875Z,95.09
2018-09-23T04:02:41.115Z,95.20
2018-09-23T04:05:12.009Z,95.49
2018-09-23T04:07:42.495Z,96.23
2018-09-23T04:10:12.596Z,97.25
2018-09-23T04:12:43.674Z,96.64
2018-09-23T04:15:15.498Z,97.10
2018-09-23T04:17:48.213Z,96.62
2018-09-23T04:20:19.519Z,96.50
2018-09-23T04:22:51.692Z,96.86
2018-09-23T04:25:22.841Z,96.74
2018-09-23T04:27:55.069Z,96.72
2018-09-23T04:30:27.381Z,97.00
2018-09-23T04:32:58.954Z,97.43
2018-09-23T04:35:31.017Z,97.21
2018-09-23T04:38:01.207Z,96.83
2018-09-23T04:40:31.348Z,96.74
2018-09-23T04:43:03.392Z,96.70
2018-09-23T04:45:33.472Z,96.72
2018-09-23T04:48:03.337Z,97.00
2018-09-23T04:50:33.980Z,96.33
2018-09-23T04:53:06.187Z,96.35
2018-09-23T04:55:37.711Z,96.75
2018-09-23T04:58:09.328Z,96.98
2018-09-23T05:00:40.167Z,96.90
2018-09-23T05:03:11.819Z,97.75
2018-09-23T05:05:41.962Z,97.28
2018-09-23T05:08:12.944Z,97.10
2018-09-23T05:10:43.351Z,96.72
2018-09-23T05:13:13.527Z,96.66
2018-09-23T05:15:44.321Z,96.19
2018-09-23T05:18:15.512Z,96.39
2018-09-23T05:20:45.600Z,95.93
2018-09-23T05:23:16.418Z,95.79
2018-09-23T05:25:47.555Z,95.79
2018-09-23T05:28:17.721Z,96.29
2018-09-23T05:30:50.144Z,96.56
2018-09-23T05:33:20.126Z,96.40
2018-09-23T05:35:52.177Z,96.36
2018-09-23T05:38:22.351Z,96.31
2018-09-23T05:40:53.332Z,95.85
2018-09-23T05:43:24.556Z,96.25
2018-09-23T05:45:58.693Z,96.68
2018-09-23T05:48:28.701Z,96.73
2018-09-23T05:50:59.343Z,96.83
2018-09-23T05:53:29.698Z,96.89
2018-09-23T05:56:00.859Z,97.00
2018-09-23T05:58:31.078Z,96.88
2018-09-23T06:01:01.318Z,96.00
2018-09-23T06:03:33.037Z,96.14
2018-09-23T06:06:03.050Z,96.41
2018-09-23T06:11:18.645Z,95.55
2018-09-23T06:13:49.650Z,95.73
2018-09-23T06:16:21.921Z,95.56
2018-09-23T06:18:52.754Z,96.11
2018-09-23T06:21:24.705Z,95.72
2018-09-23T06:23:56.064Z,95.88
2018-09-23T06:26:26.363Z,95.46
2018-09-23T06:28:58.369Z,95.25
2018-09-23T06:31:30.725Z,95.32
2018-09-23T06:34:00.871Z,95.74
2018-09-23T06:36:31.918Z,95.64
2018-09-23T06:39:02.674Z,94.57
2018-09-23T06:41:35.844Z,95.37
2018-09-23T06:44:06.913Z,95.02
2018-09-23T06:46:41.891Z,94.90
2018-09-23T06:49:11.845Z,94.82
2018-09-23T06:53:25.653Z,95.87
2018-09-23T06:55:57.541Z,94.04
2018-09-23T06:58:27.578Z,92.95
2018-09-23T07:01:00.206Z,93.47
2018-09-23T07:03:32.693Z,93.09
2018-09-23T07:06:06.141Z,92.79
2018-09-23T07:08:38.761Z,93.03
2018-09-23T07:11:09.186Z,93.15
2018-09-23T07:13:41.592Z,93.98
2018-09-23T07:16:13.620Z,91.43
2018-09-23T07:18:43.592Z,90.67
2018-09-23T07:21:13.549Z,91.61
2018-09-23T07:23:43.490Z,91.44
2018-09-23T07:26:13.474Z,90.59
2018-09-23T07:28:43.608Z,89.84
2018-09-23T07:31:17.204Z,89.67
2018-09-23T07:33:47.523Z,89.21
2018-09-23T07:36:18.271Z,89.73
2018-09-23T07:38:48.793Z,90.17
2018-09-23T07:41:19.229Z,89.55
2018-09-23T07:43:50.154Z,89.68
2018-09-23T07:46:21.509Z,88.70
2018-09-23T07:48:52.677Z,89.19
2018-09-23T07:51:23.276Z,89.41
2018-09-23T07:53:53.681Z,89.31
2018-09-23T07:56:25.057Z,89.76
2018-09-23T07:58:56.070Z,89.19
2018-09-23T08:01:26.841Z,89.01
2018-09-23T08:03:58.254Z,88.62
2018-09-23T08:06:29.136Z,88.70
2018-09-23T08:09:00.459Z,88.07
2018-09-23T08:11:31.302Z,87.21
2018-09-23T08:14:01.408Z,87.97
2018-09-23T08:16:31.743Z,88.37
2018-09-23T08:19:01.875Z,87.73
2018-09-23T08:21:34.015Z,87.90
2018-09-23T08:24:04.858Z,87.34
2018-09-23T08:26:37.812Z,87.98
2018-09-23T08:29:08.576Z,88.13
2018-09-23T08:31:38.598Z,87.78
2018-09-23T08:34:10.221Z,88.79
2018-09-23T08:36:40.424Z,87.66
2018-09-23T08:39:10.794Z,86.66
2018-09-23T08:41:40.817Z,87.62
2018-09-23T08:44:10.863Z,86.67
2018-09-23T08:46:41.158Z,86.79
2018-09-23T08:49:11.113Z,87.69
2018-09-23T08:51:41.614Z,87.30
2018-09-23T08:54:11.384Z,87.44
2018-09-23T08:56:41.426Z,86.83
2018-09-23T08:59:11.462Z,87.28
2018-09-23T09:01:41.045Z,85.94
2018-09-23T09:04:11.884Z,84.62
2018-09-23T09:06:41.921Z,85.11
2018-09-23T09:09:11.828Z,86.16
2018-09-23T09:11:41.857Z,84.70
2018-09-23T09:14:11.937Z,83.23
2018-09-23T09:16:42.835Z,82.50
2018-09-23T09:19:13.317Z,82.08
2018-09-23T09:21:43.349Z,82.72
2018-09-23T09:24:13.523Z,82.68
2018-09-23T09:26:43.692Z,81.89
2018-09-23T09:31:01.943Z,83.73
2018-09-23T09:33:32.112Z,83.05
2018-09-23T09:36:03.865Z,82.83
2018-09-23T09:38:33.911Z,81.55
2018-09-23T09:41:06.106Z,83.06
2018-09-23T09:43:37.711Z,81.96
2018-09-23T09:46:08.290Z,82.35
2018-09-23T09:48:38.160Z,82.17
2018-09-23T09:51:11.057Z,79.39
2018-09-23T09:53:41.622Z,80.35
2018-09-23T09:56:11.956Z,79.13
2018-09-23T09:58:42.248Z,79.21
2018-09-23T10:01:12.536Z,78.89
2018-09-23T10:03:42.817Z,77.91
2018-09-23T10:06:13.214Z,77.99
2018-09-23T10:08:44.069Z,78.60
2018-09-23T10:11:14.238Z,78.29
2018-09-23T10:13:44.878Z,76.49
2018-09-23T10:16:15.062Z,76.75
2018-09-23T10:18:45.134Z,75.04
2018-09-23T10:21:17.153Z,73.62
2018-09-23T10:23:47.643Z,74.26
2018-09-23T10:26:17.914Z,73.86
2018-09-23T10:28:48.060Z,74.12
2018-09-23T10:31:19.799Z,74.72
2018-09-23T10:33:50.620Z,73.45
2018-09-23T10:36:21.297Z,74.13
2018-09-23T10:38:51.419Z,73.48
2018-09-23T10:41:23.320Z,73.60
2018-09-23T10:43:53.373Z,73.26
2018-09-23T10:46:23.929Z,72.63
2018-09-23T10:48:54.347Z,73.56
2018-09-23T10:51:24.605Z,73.71
2018-09-23T10:53:55.888Z,72.77
2018-09-23T10:56:26.056Z,70.71
2018-09-23T10:58:59.406Z,71.42
2018-09-23T11:01:30.842Z,70.81
2018-09-23T11:04:01.291Z,72.77
2018-09-23T11:06:32.954Z,71.67
2018-09-23T11:09:03.183Z,72.62
2018-09-23T11:11:33.509Z,67.27
2018-09-23T11:14:03.834Z,69.48
2018-09-23T11:16:35.489Z,70.87
2018-09-23T11:19:05.908Z,70.06
2018-09-23T11:21:35.872Z,71.47
2018-09-23T11:24:06.677Z,69.60
2018-09-23T11:26:36.897Z,68.95
2018-09-23T11:29:07.251Z,67.20
2018-09-23T11:31:37.447Z,67.10
2018-09-23T11:34:09.600Z,70.25
2018-09-23T11:36:40.465Z,70.36
2018-09-23T11:39:14.452Z,70.13
2018-09-23T11:41:44.880Z,69.67
2018-09-23T11:44:14.887Z,69.47
2018-09-23T11:46:45.942Z,70.07
2018-09-23T11:49:15.975Z,69.62
2018-09-23T11:51:46.330Z,68.26
2018-09-23T11:54:16.947Z,67.25
2018-09-23T11:56:47.355Z,69.23
2018-09-23T11:59:17.640Z,71.04
2018-09-23T12:01:47.726Z,71.62
2018-09-23T12:04:18.131Z,69.18
2018-09-23T12:06:49.957Z,68.32
2018-09-23T12:09:20.431Z,69.55
2018-09-23T12:11:50.624Z,70.09
2018-09-23T12:14:20.919Z,71.33
2018-09-23T12:16:51.956Z,70.88
2018-09-23T12:19:21.915Z,71.42
2018-09-23T12:21:52.608Z,70.83
2018-09-23T12:24:22.622Z,71.68
2018-09-23T12:26:52.644Z,71.86
2018-09-23T12:29:22.250Z,71.77
2018-09-23T12:31:52.268Z,72.56
2018-09-23T12:34:21.828Z,72.90
2018-09-23T12:36:51.454Z,74.37
2018-09-23T12:39:21.177Z,75.24
2018-09-23T12:41:50.900Z,78.66
2018-09-23T12:44:20.780Z,78.16
2018-09-23T12:46:50.960Z,79.61
2018-09-23T12:49:21.463Z,78.16
2018-09-23T12:51:51.410Z,80.12
2018-09-23T12:54:22.264Z,78.76
2018-09-23T12:56:52.382Z,79.53
2018-09-23T12:59:22.777Z,80.50
2018-09-23T13:01:53.118Z,79.40
2018-09-23T13:04:23.597Z,77.83
2018-09-23T13:06:54.281Z,78.93
2018-09-23T13:09:24.450Z,79.48
2018-09-23T13:11:55.330Z,79.19
2018-09-23T13:14:25.507Z,78.65
2018-09-23T13:16:55.846Z,79.19
2018-09-23T13:19:26.970Z,81.88
2018-09-23T13:21:57.911Z,83.71
2018-09-23T13:24:30.270Z,83.79
2018-09-23T13:29:49.369Z,82.68
2018-09-23T13:32:19.445Z,84.08
2018-09-23T13:34:54.124Z,83.43
2018-09-23T13:37:25.232Z,86.00
2018-09-23T13:39:55.335Z,83.26
2018-09-23T13:42:25.650Z,82.75
2018-09-23T13:44:55.566Z,85.29
2018-09-23T13:47:27.942Z,84.85
2018-09-23T13:49:58.566Z,84.68
2018-09-23T13:52:28.850Z,84.12
2018-09-23T13:54:59.394Z,85.53
2018-09-23T13:57:30.116Z,84.65
2018-09-23T14:00:01.282Z,84.78
2018-09-23T14:02:32.087Z,82.70
2018-09-23T14:05:04.094Z,86.30
2018-09-23T14:07:34.536Z,85.37
2018-09-23T14:10:05.012Z,85.49
2018-09-23T14:12:35.377Z,85.90
2018-09-23T14:15:05.984Z,85.48
2018-09-23T14:17:38.165Z,84.94
2018-09-23T14:20:08.657Z,84.83
2018-09-23T14:22:39.028Z,84.59
2018-09-23T14:25:10.491Z,84.77
2018-09-23T14:27:41.779Z,84.21
2018-09-23T14:30:11.897Z,84.69
2018-09-23T14:32:42.110Z,83.58
2018-09-23T14:35:12.498Z,82.85
2018-09-23T14:37:43.310Z,81.21
2018-09-23T14:40:13.603Z,81.28
2018-09-23T14:42:44.159Z,80.31
2018-09-23T14:45:14.275Z,81.38
2018-09-23T14:50:25.266Z,80.19
2018-09-23T14:52:56.208Z,81.03
2018-09-23T14:55:30.866Z,79.50
2018-09-23T15:00:40.649Z,79.66
2018-09-23T15:03:11.428Z,80.38
2018-09-23T15:05:42.942Z,81.18
2018-09-23T15:08:13.378Z,80.86
2018-09-23T15:10:43.803Z,81.04
2018-09-23T15:13:14.050Z,81.24
2018-09-23T15:15:57.665Z,82.06
2018-09-23T15:18:39.750Z,83.04
2018-09-23T15:23:57.608Z,83.19
2018-09-23T15:26:36.797Z,84.12
2018-09-23T15:29:14.780Z,83.63
2018-09-23T15:31:47.522Z,84.20
2018-09-23T15:34:23.094Z,83.95
2018-09-23T15:36:57.199Z,84.98
2018-09-23T15:39:31.096Z,84.83
2018-09-23T15:42:05.455Z,85.14
2018-09-23T15:44:38.755Z,85.26
2018-09-23T15:47:11.514Z,84.89
2018-09-23T15:49:52.803Z,85.18
2018-09-23T15:52:25.589Z,85.66
2018-09-23T15:54:58.991Z,86.14
2018-09-23T15:57:30.819Z,85.08
2018-09-23T16:00:05.047Z,84.82
2018-09-23T16:02:37.564Z,84.86
2018-09-23T16:05:12.965Z,83.86
2018-09-23T16:07:45.651Z,81.97
2018-09-23T16:10:17.302Z,80.60
2018-09-23T16:12:50.593Z,78.13
2018-09-23T16:15:32.180Z,76.68
2018-09-23T16:18:05.132Z,75.32
2018-09-23T16:20:37.345Z,74.89
2018-09-23T16:23:09.249Z,72.71
2018-09-23T16:25:42.323Z,71.03
2018-09-23T16:28:16.607Z,71.66
2018-09-23T16:30:47.118Z,71.24
2018-09-23T16:33:17.139Z,71.87
2018-09-23T16:35:50.034Z,71.46
2018-09-23T16:38:20.514Z,71.25
2018-09-23T16:40:51.284Z,71.03
2018-09-23T16:43:21.519Z,71.55
2018-09-23T16:45:51.894Z,72.12
2018-09-23T16:48:22.115Z,71.06
2018-09-23T16:51:06.309Z,71.60
2018-09-23T16:56:39.537Z,71.72
2018-09-23T17:05:26.260Z,72.09
2018-09-23T17:23:17.714Z,72.15
2018-09-23T17:25:48.279Z,71.67
2018-09-23T17:28:18.515Z,72.14
2018-09-23T17:30:48.808Z,72.27
2018-09-23T17:33:18.752Z,72.62
2018-09-23T17:35:48.752Z,72.97
2018-09-23T17:38:18.785Z,72.98
2018-09-23T17:40:52.197Z,72.83
2018-09-23T17:43:25.722Z,72.85
2018-09-23T17:45:57.377Z,73.37
2018-09-23T17:48:27.917Z,73.46
2018-09-23T17:50:58.374Z,72.51
2018-09-23T17:53:30.302Z,74.18
2018-09-23T17:56:00.563Z,73.48
2018-09-23T17:58:31.709Z,74.63
2018-09-23T18:01:02.983Z,73.42
2018-09-23T18:03:35.554Z,73.30
2018-09-23T18:06:06.823Z,73.65
2018-09-23T18:08:38.100Z,72.45
2018-09-23T18:11:08.964Z,72.76
2018-09-23T18:13:38.998Z,73.60
2018-09-23T18:16:10.332Z,72.47
2018-09-23T18:18:40.587Z,72.22
2018-09-23T18:21:12.884Z,71.83
2018-09-23T18:23:43.661Z,72.02
2018-09-23T18:26:13.691Z,72.41
2018-09-23T18:28:43.895Z,73.11
2018-09-23T18:31:16.290Z,72.82
2018-09-23T18:33:47.019Z,72.47
2018-09-23T18:36:17.139Z,71.67
2018-09-23T18:38:47.270Z,72.69
2018-09-23T18:41:17.686Z,72.79
2018-09-23T18:43:47.947Z,72.19
2018-09-23T18:46:19.056Z,72.64
2018-09-23T18:48:49.208Z,73.10
2018-09-23T18:51:19.373Z,73.38
2018-09-23T18:53:55.092Z,73.47
2018-09-23T18:56:25.422Z,74.14
2018-09-23T18:58:56.205Z,74.43
2018-09-23T19:01:26.846Z,75.56
2018-09-23T19:03:59.127Z,74.92
2018-09-23T19:06:31.599Z,75.45
2018-09-23T19:09:03.341Z,74.80
2018-09-23T19:11:34.282Z,74.96
2018-09-23T19:14:05.426Z,75.02
2018-09-23T19:16:36.757Z,75.55
2018-09-23T19:19:08.008Z,75.53
2018-09-23T19:21:38.763Z,76.16
2018-09-23T19:24:10.403Z,76.32
2018-09-23T19:26:42.427Z,76.43
2018-09-23T19:29:15.465Z,75.85
2018-09-23T19:31:46.723Z,76.00
2018-09-23T19:34:18.263Z,76.60
2018-09-23T19:36:49.464Z,76.37
2018-09-23T19:39:20.085Z,76.63
2018-09-23T19:41:53.311Z,76.57
2018-09-23T19:44:23.717Z,76.29
2018-09-23T19:46:54.795Z,76.08
2018-09-23T19:49:25.797Z,76.47
2018-09-23T19:51:57.284Z,75.77
2018-09-23T19:54:27.462Z,76.64
2018-09-23T19:57:01.414Z,76.58
2018-09-23T19:59:32.347Z,77.27
2018-09-23T20:02:03.722Z,76.72
2018-09-23T20:04:33.685Z,76.68
2018-09-23T20:07:04.471Z,77.00
2018-09-23T20:09:35.914Z,76.65
2018-09-23T20:12:07.147Z,76.30
2018-09-23T20:14:38.193Z,76.37
2018-09-23T20:17:09.708Z,77.03
2018-09-23T20:19:40.757Z,76.77
2018-09-23T20:22:13.036Z,76.83
2018-09-23T20:24:42.999Z,77.54
2018-09-23T20:27:13.056Z,76.88
2018-09-23T20:29:44.486Z,76.63
2018-09-23T20:32:14.531Z,78.37
2018-09-23T20:34:45.506Z,77.84
2018-09-23T20:37:15.971Z,77.65
2018-09-23T20:39:47.786Z,77.36
2018-09-23T20:42:17.760Z,77.73
2018-09-23T20:44:48.795Z,77.19
2018-09-23T20:47:19.135Z,77.74
2018-09-23T20:49:49.492Z,77.55
2018-09-23T20:52:19.863Z,76.80
2018-09-23T20:54:50.032Z,76.77
2018-09-23T20:57:20.205Z,76.86
2018-09-23T20:59:50.452Z,77.49
2018-09-23T21:02:21.273Z,77.30
2018-09-23T21:04:51.460Z,77.32
2018-09-23T21:07:21.494Z,76.89
2018-09-23T21:09:51.613Z,77.81
2018-09-23T21:12:21.833Z,77.49
2018-09-23T21:14:53.184Z,76.99
2018-09-23T21:17:27.207Z,77.16
2018-09-23T21:19:58.953Z,76.56
2018-09-23T21:22:29.033Z,76.28
2018-09-23T21:24:59.125Z,76.31
2018-09-23T21:27:29.611Z,77.21
2018-09-23T21:29:59.843Z,76.58
2018-09-23T21:32:30.117Z,76.51
2018-09-23T21:35:00.294Z,76.64
2018-09-23T21:37:31.671Z,76.59
2018-09-23T21:40:02.520Z,75.99
2018-09-23T21:42:32.884Z,76.89
2018-09-23T21:45:04.590Z,76.71
2018-09-23T21:47:36.383Z,76.26
2018-09-23T21:50:07.008Z,77.28
2018-09-23T21:52:44.288Z,76.12
2018-09-23T21:55:22.282Z,76.57
2018-09-23T21:58:10.048Z,77.84
2018-09-23T22:00:42.235Z,78.33
2018-09-23T22:03:13.579Z,77.68
2018-09-23T22:05:43.577Z,78.32
2018-09-23T22:08:14.311Z,79.04
2018-09-23T22:10:45.265Z,79.22
2018-09-23T22:13:16.205Z,78.72
2018-09-23T22:15:47.239Z,78.80
2018-09-23T22:18:17.606Z,79.34
2018-09-23T22:20:47.592Z,78.96
2018-09-23T22:23:18.636Z,79.06
2018-09-23T22:25:50.367Z,78.68
2018-09-23T22:28:20.502Z,79.35
2018-09-23T22:30:50.529Z,79.92
2018-09-23T22:33:21.132Z,79.74
2018-09-23T22:35:52.173Z,80.01
2018-09-23T22:38:23.865Z,79.16
2018-09-23T22:40:55.212Z,80.68
2018-09-23T22:43:25.605Z,79.99
2018-09-23T22:45:55.725Z,80.13
2018-09-23T22:49:39.835Z,80.19
2018-09-23T22:52:09.996Z,79.53
2018-09-23T22:54:40.219Z,79.87
2018-09-23T22:57:10.574Z,79.85
2018-09-23T22:59:41.531Z,81.11
2018-09-23T23:02:13.703Z,79.72
2018-09-23T23:04:46.774Z,79.98
2018-09-23T23:07:19.845Z,80.44
2018-09-23T23:09:49.845Z,79.76
2018-09-23T23:12:19.903Z,80.13
2018-09-23T23:14:50.035Z,79.56
2018-09-23T23:17:20.513Z,78.75
2018-09-23T23:19:50.537Z,78.56
2018-09-23T23:22:21.970Z,78.17
2018-09-23T23:24:55.177Z,78.20
2018-09-23T23:27:25.604Z,77.71
2018-09-23T23:29:57.247Z,78.29
2018-09-23T23:32:27.249Z,77.63
2018-09-23T23:34:57.265Z,79.24
2018-09-23T23:37:27.180Z,77.63
2018-09-23T23:39:57.197Z,78.44
2018-09-23T23:42:28.360Z,78.08
2018-09-23T23:44:58.378Z,77.96
2018-09-23T23:47:28.503Z,78.16
2018-09-23T23:49:58.604Z,78.67
2018-09-23T23:52:28.770Z,79.10
2018-09-23T23:54:58.739Z,78.52
2018-09-23T23:57:28.771Z,78.09
2018-09-23T23:59:58.800Z,78.05
